^^
Meteo Knjazevac Station Historical Data
Daily Summary for March 7, 2021 Units:  Metric    English   Both
Daily Weekly Monthly Yearly Custom
  High: Low: Average:
Temperature: 11 °C 9.5 °C 10.2 °C
Dew Point: 7.2 °C 6.4 °C 6.8 °C
Humidity: 83% 76% 80%
Wind Speed: 4.8km/h 0km/h 1.3km/h
Wind Gust: 9.7km/h - -
Wind- - East
Pressure: 1016.1 hPa 1015.5 hPa -
Precipitation: 0 mm    
Historical Graphs
 
 
Tabular Data for March 7, 2021
Time Temperature Dew Point Pressure Wind Wind Speed Wind Gust Humidity Rainfall Rate (Hourly) solar Conditions
00:00 11 °C 7.1 °C 1016.1 hPa Calm   3.2 km/h 77% 0 mm 0 W/m2
00:10 10.9 °C 7.2 °C 1015.8 hPa Calm   3.2 km/h 78% 0 mm 0 W/m2
00:20 10.8 °C 7.1 °C 1016.1 hPa North 1.6 km/h 3.2 km/h 78% 0 mm 0 W/m2
00:30 10.6 °C 6.9 °C 1016.1 hPa Calm   3.2 km/h 78% 0 mm 0 W/m2
00:40 10.4 °C 6.9 °C 1016.1 hPa Calm   3.2 km/h 79% 0 mm 0 W/m2
00:50 10.1 °C 6.6 °C 1016.1 hPa Calm   4.8 km/h 79% 0 mm 0 W/m2
01:00 9.9 °C 6.6 °C 1016.1 hPa NNW 1.6 km/h 3.2 km/h 80% 0 mm 0 W/m2
01:10 9.9 °C 6.6 °C 1015.8 hPa Calm   3.2 km/h 80% 0 mm 0 W/m2
01:20 9.9 °C 6.8 °C 1015.8 hPa Calm   3.2 km/h 81% 0 mm 0 W/m2
01:30 9.7 °C 6.6 °C 1015.8 hPa Calm   4.8 km/h 81% 0 mm 0 W/m2
01:40 9.6 °C 6.5 °C 1015.8 hPa North 1.6 km/h 4.8 km/h 81% 0 mm 0 W/m2
01:50 9.6 °C 6.4 °C 1015.8 hPa Calm   4.8 km/h 81% 0 mm 0 W/m2
02:10 9.6 °C 6.8 °C 1015.8 hPa NNE 4.8 km/h 9.7 km/h 83% 0 mm 0 W/m2
02:20 9.7 °C 6.9 °C 1015.8 hPa Calm   9.7 km/h 83% 0 mm 0 W/m2
02:30 9.5 °C 6.6 °C 1015.8 hPa NNE 3.2 km/h 9.7 km/h 82% 0 mm 0 W/m2
02:40 9.6 °C 6.9 °C 1015.5 hPa NNE 3.2 km/h 8 km/h 83% 0 mm 0 W/m2
02:50 9.7 °C 6.8 °C 1015.8 hPa North 1.6 km/h 4.8 km/h 82% 0 mm 0 W/m2
03:00 9.9 °C 6.8 °C 1015.5 hPa NNE 3.2 km/h 8 km/h 81% 0 mm 0 W/m2
05:10 11 °C 6.9 °C 1015.5 hPa NNE 1.6 km/h 8 km/h 76% 0 mm 0 W/m2
05:20 10.8 °C 6.9 °C 1015.8 hPa NNE 1.6 km/h 8 km/h 77% 0 mm 3 W/m2
05:30 10.7 °C 7 °C 1015.8 hPa NNE 3.2 km/h 4.8 km/h 78% 0 mm 9 W/m2
05:40 10.7 °C 6.8 °C 1015.8 hPa ENE 1.6 km/h 3.2 km/h 77% 0 mm 18 W/m2
05:50 10.7 °C 7 °C 1015.8 hPa NNW 1.6 km/h 3.2 km/h 78% 0 mm 30 W/m2
06:00 10.8 °C 7.1 °C 1015.8 hPa NNE 1.6 km/h 4.8 km/h 78% 0 mm 43 W/m2
06:10 10.9 °C 7.2 °C 1015.8 hPa Calm   8 km/h 78% 0 mm 56 W/m2
Knjazevac, Serbia
Compliments of Weather Underground - 2 mb